createdAt,value
2018-04-18T00:01:15.816Z,94.50
2018-04-18T00:03:43.263Z,94.70
2018-04-18T00:06:10.709Z,94.90
2018-04-18T00:08:38.175Z,94.90
2018-04-18T00:11:05.650Z,95.10
2018-04-18T00:13:33.100Z,95.40
2018-04-18T00:16:00.548Z,95.40
2018-04-18T00:18:28.027Z,95.40
2018-04-18T00:20:55.492Z,95.30
2018-04-18T00:23:22.961Z,95.50
2018-04-18T00:25:50.413Z,95.40
2018-04-18T00:28:17.858Z,95.70
2018-04-18T00:30:45.344Z,96.00
2018-04-18T00:33:13.564Z,96.30
2018-04-18T00:35:41.010Z,96.20
2018-04-18T00:38:08.483Z,96.30
2018-04-18T00:40:35.962Z,96.50
2018-04-18T00:43:04.572Z,96.70
2018-04-18T00:45:32.055Z,97.00
2018-04-18T00:47:59.505Z,97.00
2018-04-18T00:50:27.389Z,97.20
2018-04-18T00:52:54.828Z,97.20
2018-04-18T00:55:22.281Z,97.10
2018-04-18T00:57:49.747Z,96.90
2018-04-18T01:00:17.185Z,97.20
2018-04-18T01:02:45.425Z,97.50
2018-04-18T01:05:12.906Z,97.40
2018-04-18T01:07:40.366Z,97.40
2018-04-18T01:10:08.578Z,97.60
2018-04-18T01:12:36.062Z,97.60
2018-04-18T01:15:03.513Z,97.90
2018-04-18T01:17:30.951Z,98.00
2018-04-18T01:19:58.425Z,97.80
2018-04-18T01:22:25.898Z,97.80
2018-04-18T01:24:53.339Z,97.80
2018-04-18T01:27:21.573Z,97.80
2018-04-18T01:29:49.787Z,98.00
2018-04-18T01:32:17.243Z,98.00
2018-04-18T01:34:44.712Z,97.90
2018-04-18T01:37:12.160Z,98.20
2018-04-18T01:39:39.612Z,98.50
2018-04-18T01:42:07.094Z,98.40
2018-04-18T01:44:34.562Z,98.30
2018-04-18T01:47:02.005Z,98.40
2018-04-18T01:49:32.419Z,98.30
2018-04-18T01:51:59.895Z,98.50
2018-04-18T01:54:27.338Z,98.60
2018-04-18T01:56:54.794Z,98.60
2018-04-18T01:59:22.263Z,99.00
2018-04-18T02:01:49.674Z,99.10
2018-04-18T02:04:17.117Z,99.50
2018-04-18T02:06:44.590Z,99.50
2018-04-18T02:09:12.041Z,99.30
2018-04-18T02:11:39.499Z,99.40
2018-04-18T02:14:06.958Z,99.50
2018-04-18T02:16:34.428Z,99.50
2018-04-18T02:19:01.898Z,99.70
2018-04-18T02:21:29.344Z,99.60
2018-04-18T02:23:56.812Z,99.60
2018-04-18T02:26:24.275Z,99.80
2018-04-18T02:28:51.798Z,99.80
2018-04-18T02:31:19.247Z,99.80
2018-04-18T02:33:46.695Z,99.80
2018-04-18T02:36:14.150Z,99.80
2018-04-18T02:38:41.609Z,99.80
2018-04-18T02:41:09.073Z,99.70
2018-04-18T02:43:36.542Z,99.60
2018-04-18T02:46:04.027Z,99.50
2018-04-18T02:48:31.484Z,99.30
2018-04-18T02:50:58.955Z,99.40
2018-04-18T02:53:26.431Z,99.80
2018-04-18T02:55:54.680Z,99.60
2018-04-18T02:58:22.139Z,99.50
2018-04-18T03:00:49.606Z,99.70
2018-04-18T03:03:17.066Z,99.70
2018-04-18T03:05:45.236Z,99.50
2018-04-18T03:08:12.698Z,99.90
2018-04-18T03:10:40.158Z,99.90
2018-04-18T03:13:08.399Z,99.90
2018-04-18T03:15:35.880Z,99.90
2018-04-18T03:18:03.386Z,99.90
2018-04-18T03:20:30.859Z,99.90
2018-04-18T03:22:58.312Z,99.90
2018-04-18T03:25:27.017Z,99.90
2018-04-18T03:27:54.481Z,99.90
2018-04-18T03:30:21.949Z,99.90
2018-04-18T03:32:49.421Z,99.90
2018-04-18T03:35:17.656Z,99.90
2018-04-18T03:37:45.124Z,99.90
2018-04-18T03:40:12.599Z,99.90
2018-04-18T03:42:40.092Z,99.90
2018-04-18T03:45:07.536Z,99.90
2018-04-18T03:47:35.772Z,99.90
2018-04-18T03:50:03.242Z,99.90
2018-04-18T03:52:30.707Z,99.90
2018-04-18T03:54:58.169Z,99.90
2018-04-18T03:57:26.395Z,99.90
2018-04-18T03:59:53.870Z,99.90
2018-04-18T04:02:22.470Z,99.90
2018-04-18T04:04:49.913Z,99.90
2018-04-18T04:07:17.361Z,99.90
2018-04-18T04:09:44.863Z,99.90
2018-04-18T04:12:13.069Z,99.90
2018-04-18T04:14:40.523Z,99.90
2018-04-18T04:17:20.045Z,99.90
2018-04-18T04:19:59.205Z,99.90
2018-04-18T04:22:38.446Z,99.90
2018-04-18T04:25:05.914Z,99.90
2018-04-18T04:27:33.382Z,99.90
2018-04-18T04:30:00.867Z,99.90
2018-04-18T04:32:29.102Z,99.90
2018-04-18T04:34:56.544Z,99.90
2018-04-18T04:37:24.007Z,99.90
2018-04-18T04:39:51.446Z,99.90
2018-04-18T04:42:18.903Z,99.90
2018-04-18T04:44:46.392Z,99.90
2018-04-18T04:47:13.810Z,99.90
2018-04-18T04:49:41.263Z,99.90
2018-04-18T04:52:08.722Z,99.90
2018-04-18T04:54:36.191Z,99.90
2018-04-18T04:57:03.737Z,99.90
2018-04-18T04:59:31.183Z,99.90
2018-04-18T05:01:58.654Z,99.90
2018-04-18T05:04:26.137Z,99.90
2018-04-18T05:06:53.614Z,99.90
2018-04-18T05:09:21.065Z,99.90
2018-04-18T05:11:48.530Z,99.90
2018-04-18T05:14:16.022Z,99.90
2018-04-18T05:16:43.495Z,99.90
2018-04-18T05:19:10.935Z,99.90
2018-04-18T05:21:38.391Z,99.90
2018-04-18T05:24:06.411Z,99.90
2018-04-18T05:26:33.881Z,99.90
2018-04-18T05:29:01.351Z,99.90
2018-04-18T05:31:28.822Z,99.90
2018-04-18T05:33:57.031Z,99.90
2018-04-18T05:36:24.497Z,99.90
2018-04-18T05:38:51.964Z,99.90
2018-04-18T05:41:19.404Z,99.90
2018-04-18T05:43:46.874Z,99.90
2018-04-18T05:46:14.316Z,99.90
2018-04-18T05:48:41.828Z,99.90
2018-04-18T05:51:10.084Z,99.90
2018-04-18T05:53:37.528Z,99.90
2018-04-18T05:56:05.033Z,99.90
2018-04-18T05:58:33.271Z,99.90
2018-04-18T06:01:00.714Z,99.90
2018-04-18T06:03:28.183Z,99.90
2018-04-18T06:05:55.640Z,99.90
2018-04-18T06:08:23.095Z,99.90
2018-04-18T06:10:50.545Z,99.90
2018-04-18T06:13:18.007Z,99.90
2018-04-18T06:15:45.500Z,99.90
2018-04-18T06:18:13.702Z,99.90
2018-04-18T06:20:41.177Z,99.90
2018-04-18T06:23:08.633Z,99.90
2018-04-18T06:25:36.530Z,99.90
2018-04-18T06:28:03.984Z,99.90
2018-04-18T06:30:31.432Z,99.50
2018-04-18T06:32:58.918Z,99.00
2018-04-18T06:35:27.129Z,97.70
2018-04-18T06:37:54.607Z,97.60
2018-04-18T06:40:22.070Z,97.40
2018-04-18T06:42:49.527Z,96.80
2018-04-18T06:45:16.990Z,96.60
2018-04-18T06:47:44.445Z,96.40
2018-04-18T06:50:11.915Z,95.50
2018-04-18T06:52:39.397Z,94.90
2018-04-18T06:55:07.613Z,94.60
2018-04-18T06:57:35.127Z,94.60
2018-04-18T07:00:02.586Z,94.60
2018-04-18T07:02:30.051Z,93.80
2018-04-18T07:04:57.522Z,93.00
2018-04-18T07:07:24.995Z,92.30
2018-04-18T07:09:52.450Z,92.10
2018-04-18T07:12:19.888Z,91.80
2018-04-18T07:14:47.335Z,91.40
2018-04-18T07:17:14.809Z,90.60
2018-04-18T07:19:42.283Z,90.10
2018-04-18T07:22:09.733Z,88.30
2018-04-18T07:24:37.218Z,87.50
2018-04-18T07:27:04.679Z,86.30
2018-04-18T07:29:32.114Z,85.30
2018-04-18T07:31:59.588Z,85.10
2018-04-18T07:34:27.805Z,83.80
2018-04-18T07:36:55.288Z,84.50
2018-04-18T07:39:22.726Z,82.70
2018-04-18T07:41:50.194Z,81.30
2018-04-18T07:44:17.653Z,81.50
2018-04-18T07:46:45.123Z,81.60
2018-04-18T07:49:12.573Z,80.30
2018-04-18T07:51:40.016Z,80.10
2018-04-18T07:54:07.495Z,79.20
2018-04-18T07:56:34.963Z,78.70
2018-04-18T07:59:02.408Z,75.90
2018-04-18T08:01:29.878Z,75.60
2018-04-18T08:03:58.115Z,74.40
2018-04-18T08:06:25.560Z,74.30
2018-04-18T08:08:53.036Z,76.10
2018-04-18T08:11:20.534Z,72.70
2018-04-18T08:13:48.248Z,71.70
2018-04-18T08:16:15.853Z,71.70
2018-04-18T08:18:44.256Z,65.50
2018-04-18T08:21:11.756Z,65.30
2018-04-18T08:23:39.212Z,64.90
2018-04-18T08:26:06.883Z,62.00
2018-04-18T08:28:34.368Z,60.30
2018-04-18T08:31:01.851Z,60.00
2018-04-18T08:33:30.093Z,58.50
2018-04-18T08:35:57.574Z,58.50
2018-04-18T08:38:25.016Z,60.50
2018-04-18T08:40:52.494Z,58.50
2018-04-18T08:43:20.754Z,58.60
2018-04-18T08:45:48.218Z,58.60
2018-04-18T08:48:15.667Z,53.60
2018-04-18T08:50:43.146Z,54.90
2018-04-18T08:53:10.621Z,53.40
2018-04-18T08:55:38.081Z,54.90
2018-04-18T08:58:05.657Z,52.40
2018-04-18T09:00:33.109Z,51.00
2018-04-18T09:03:00.578Z,51.40
2018-04-18T09:05:28.028Z,51.10
2018-04-18T09:07:55.498Z,51.00
2018-04-18T09:10:22.974Z,51.80
2018-04-18T09:12:50.463Z,50.10
2018-04-18T09:15:18.683Z,49.00
2018-04-18T09:17:46.142Z,48.80
2018-04-18T09:20:13.583Z,52.80
2018-04-18T09:22:41.052Z,51.20
2018-04-18T09:25:08.525Z,47.00
2018-04-18T09:27:35.973Z,46.70
2018-04-18T09:30:03.442Z,45.40
2018-04-18T09:32:30.934Z,42.70
2018-04-18T09:34:59.139Z,45.10
2018-04-18T09:37:26.611Z,45.00
2018-04-18T09:39:54.099Z,45.60
2018-04-18T09:42:21.548Z,43.30
2018-04-18T09:44:49.003Z,44.40
2018-04-18T09:47:16.467Z,42.50
2018-04-18T09:49:43.918Z,42.70
2018-04-18T09:52:12.102Z,42.20
2018-04-18T09:54:39.589Z,43.80
2018-04-18T09:57:07.800Z,41.80
2018-04-18T09:59:35.251Z,41.80
2018-04-18T10:02:08.465Z,41.40
2018-04-18T10:04:35.916Z,39.00
2018-04-18T10:07:03.375Z,39.90
2018-04-18T10:09:30.857Z,39.50
2018-04-18T10:11:58.308Z,38.50
2018-04-18T10:14:25.776Z,37.60
2018-04-18T10:16:53.265Z,36.90
2018-04-18T10:19:20.718Z,36.60
2018-04-18T10:21:48.173Z,36.80
2018-04-18T10:24:15.646Z,34.40
2018-04-18T10:26:43.083Z,34.70
2018-04-18T10:29:10.563Z,35.10
2018-04-18T10:31:38.124Z,34.70
2018-04-18T10:34:05.600Z,34.70
2018-04-18T10:36:33.074Z,34.20
2018-04-18T10:39:00.521Z,31.80
2018-04-18T10:41:28.003Z,34.10
2018-04-18T10:43:55.452Z,33.40
2018-04-18T10:46:23.578Z,32.30
2018-04-18T10:48:51.044Z,31.40
2018-04-18T10:51:18.485Z,32.50
2018-04-18T10:53:46.186Z,31.90
2018-04-18T10:56:13.918Z,30.50
2018-04-18T10:58:41.405Z,32.40
2018-04-18T11:01:08.875Z,30.50
2018-04-18T11:03:36.367Z,29.70
2018-04-18T11:06:03.844Z,30.90
2018-04-18T11:08:31.292Z,29.90
2018-04-18T11:10:58.755Z,30.40
2018-04-18T11:13:26.197Z,31.00
2018-04-18T11:15:53.661Z,30.90
2018-04-18T11:18:21.109Z,30.00
2018-04-18T11:20:48.599Z,29.50
2018-04-18T11:23:16.142Z,29.40
2018-04-18T11:25:43.569Z,29.40
2018-04-18T11:28:11.799Z,31.60
2018-04-18T11:30:39.263Z,32.20
2018-04-18T11:33:06.738Z,30.00
2018-04-18T11:35:34.204Z,28.60
2018-04-18T11:38:02.415Z,30.40
2018-04-18T11:40:29.892Z,30.20
2018-04-18T11:42:57.434Z,30.70
2018-04-18T11:45:24.891Z,31.80
2018-04-18T11:47:52.327Z,30.00
2018-04-18T11:50:19.795Z,30.80
2018-04-18T11:52:47.466Z,31.50
2018-04-18T11:55:14.931Z,30.90
2018-04-18T11:57:42.434Z,31.10
2018-04-18T12:00:09.875Z,31.60
2018-04-18T12:02:37.314Z,31.10
2018-04-18T12:05:04.798Z,28.60
2018-04-18T12:07:32.270Z,29.70
2018-04-18T12:10:00.510Z,31.00
2018-04-18T12:12:27.993Z,31.00
2018-04-18T12:14:55.431Z,30.00
2018-04-18T12:17:22.902Z,30.80
2018-04-18T12:19:50.372Z,30.20
2018-04-18T12:22:18.620Z,29.90
2018-04-18T12:24:46.083Z,29.90
2018-04-18T12:27:13.999Z,32.20
2018-04-18T12:29:41.816Z,30.00
2018-04-18T12:32:09.556Z,29.30
2018-04-18T12:34:37.093Z,28.20
2018-04-18T12:37:04.564Z,28.30
2018-04-18T12:39:32.081Z,28.70
2018-04-18T12:41:59.567Z,28.70
2018-04-18T12:44:27.023Z,29.10
2018-04-18T12:46:54.494Z,29.90
2018-04-18T12:49:21.963Z,29.40
2018-04-18T12:51:49.433Z,26.50
2018-04-18T12:54:16.890Z,28.10
2018-04-18T12:56:44.356Z,27.80
2018-04-18T12:59:11.878Z,30.00
2018-04-18T13:01:39.351Z,27.20
2018-04-18T13:04:06.803Z,28.60
2018-04-18T13:06:34.305Z,29.10
2018-04-18T13:09:02.516Z,28.80
2018-04-18T13:11:30.055Z,28.90
2018-04-18T13:13:57.530Z,29.10
2018-04-18T13:16:24.991Z,29.90
2018-04-18T13:18:52.509Z,28.60
2018-04-18T13:21:20.769Z,30.70
2018-04-18T13:23:48.999Z,30.60
2018-04-18T13:26:16.454Z,30.50
2018-04-18T13:28:43.900Z,29.80
2018-04-18T13:31:11.375Z,32.80
2018-04-18T13:33:38.845Z,31.20
2018-04-18T13:36:06.314Z,32.50
2018-04-18T13:38:33.809Z,30.30
2018-04-18T13:41:01.258Z,32.00
2018-04-18T13:43:29.477Z,33.30
2018-04-18T13:45:56.942Z,33.80
2018-04-18T13:48:24.389Z,33.00
2018-04-18T13:50:51.914Z,35.00
2018-04-18T13:53:20.291Z,35.40
2018-04-18T13:55:48.551Z,35.00
2018-04-18T13:58:16.790Z,37.70
2018-04-18T14:00:44.259Z,37.00
2018-04-18T14:03:11.731Z,35.20
2018-04-18T14:05:39.176Z,34.50
2018-04-18T14:08:06.646Z,34.80
2018-04-18T14:10:34.102Z,34.20
2018-04-18T14:13:01.581Z,36.90
2018-04-18T14:15:29.034Z,35.50
2018-04-18T14:17:57.249Z,36.00
2018-04-18T14:20:24.726Z,35.90
2018-04-18T14:22:52.235Z,36.20
2018-04-18T14:25:19.686Z,35.00
2018-04-18T14:27:47.284Z,34.00
2018-04-18T14:30:15.168Z,32.30
2018-04-18T14:32:43.882Z,32.90
2018-04-18T14:35:11.935Z,32.70
2018-04-18T14:37:39.495Z,31.90
2018-04-18T14:40:07.012Z,31.60
2018-04-18T14:42:34.534Z,31.50
2018-04-18T14:45:02.824Z,34.30
2018-04-18T14:47:30.340Z,34.10
2018-04-18T14:49:58.622Z,34.10
2018-04-18T14:52:26.202Z,34.10
2018-04-18T14:54:54.463Z,33.20
2018-04-18T14:57:21.903Z,33.30
2018-04-18T14:59:49.489Z,32.90
2018-04-18T15:02:16.957Z,32.40
2018-04-18T15:04:45.195Z,35.50
2018-04-18T15:07:12.741Z,35.40
2018-04-18T15:09:40.344Z,35.80
2018-04-18T15:12:08.641Z,36.50
2018-04-18T15:14:36.155Z,36.40
2018-04-18T15:17:04.492Z,36.00
2018-04-18T15:19:31.989Z,36.00
2018-04-18T15:21:59.906Z,34.80
2018-04-18T15:24:27.404Z,35.00
2018-04-18T15:26:55.144Z,33.90
2018-04-18T15:29:22.950Z,34.00
2018-04-18T15:31:50.395Z,34.60
2018-04-18T15:34:17.871Z,35.60
2018-04-18T15:36:45.567Z,35.60
2018-04-18T15:39:13.042Z,36.00
2018-04-18T15:41:40.503Z,35.50
2018-04-18T15:44:07.952Z,35.00
2018-04-18T15:46:36.308Z,36.50
2018-04-18T15:49:03.790Z,36.10
2018-04-18T15:51:31.527Z,36.00
2018-04-18T15:53:59.010Z,36.70
2018-04-18T15:56:26.502Z,36.20
2018-04-18T15:58:53.970Z,36.40
2018-04-18T16:01:21.588Z,36.20
2018-04-18T16:03:49.185Z,36.90
2018-04-18T16:06:16.896Z,36.20
2018-04-18T16:08:44.537Z,35.70
2018-04-18T16:11:12.107Z,36.30
2018-04-18T16:13:39.993Z,37.10
2018-04-18T16:16:07.433Z,36.90
2018-04-18T16:18:34.883Z,37.30
2018-04-18T16:21:02.579Z,37.30
2018-04-18T16:23:30.343Z,37.30
2018-04-18T16:25:57.894Z,36.80
2018-04-18T16:28:25.373Z,37.00
2018-04-18T16:30:52.912Z,37.50
2018-04-18T16:33:20.456Z,36.60
2018-04-18T16:35:48.332Z,36.50
2018-04-18T16:38:15.886Z,37.00
2018-04-18T16:40:43.535Z,37.00
2018-04-18T16:43:11.062Z,36.60
2018-04-18T16:45:38.567Z,36.50
2018-04-18T16:48:06.009Z,37.20
2018-04-18T16:50:33.490Z,37.60
2018-04-18T16:53:00.997Z,36.00
2018-04-18T16:55:29.275Z,36.60
2018-04-18T16:57:57.493Z,36.20
2018-04-18T17:00:24.990Z,36.20
2018-04-18T17:02:52.559Z,36.70
2018-04-18T17:05:20.820Z,36.20
2018-04-18T17:07:48.263Z,36.10
2018-04-18T17:10:15.709Z,35.70
2018-04-18T17:12:43.172Z,35.60
2018-04-18T17:15:10.687Z,36.20
2018-04-18T17:17:38.159Z,36.40
2018-04-18T17:20:05.616Z,36.00
2018-04-18T17:22:33.122Z,37.00
2018-04-18T17:25:00.582Z,36.30
2018-04-18T17:27:28.052Z,35.90
2018-04-18T17:29:56.280Z,36.40
2018-04-18T17:32:23.731Z,36.40
2018-04-18T17:34:51.200Z,36.70
2018-04-18T17:37:18.698Z,37.50
2018-04-18T17:39:46.927Z,37.10
2018-04-18T17:42:14.396Z,37.00
2018-04-18T17:44:41.896Z,37.30
2018-04-18T17:47:09.357Z,37.60
2018-04-18T17:49:37.565Z,36.90
2018-04-18T17:52:05.062Z,36.90
2018-04-18T17:54:32.515Z,37.50
2018-04-18T17:56:59.962Z,37.60
2018-04-18T17:59:27.422Z,38.20
2018-04-18T18:01:54.913Z,38.10
2018-04-18T18:04:23.117Z,39.40
2018-04-18T18:06:50.591Z,39.30
2018-04-18T18:09:18.076Z,38.90
2018-04-18T18:11:45.524Z,39.80
2018-04-18T18:14:13.345Z,40.80
2018-04-18T18:16:40.826Z,40.20
2018-04-18T18:19:08.274Z,42.10
2018-04-18T18:21:35.752Z,41.50
2018-04-18T18:24:03.204Z,41.30
2018-04-18T18:26:30.699Z,44.70
2018-04-18T18:28:58.169Z,46.50
2018-04-18T18:31:26.412Z,48.20
2018-04-18T18:33:53.854Z,48.80
2018-04-18T18:36:21.355Z,45.70
2018-04-18T18:38:49.564Z,49.30
2018-04-18T18:41:17.029Z,49.20
2018-04-18T18:43:44.501Z,50.30
2018-04-18T18:46:11.955Z,50.10
2018-04-18T18:48:39.408Z,51.20
2018-04-18T18:51:06.852Z,52.50
2018-04-18T18:53:34.346Z,53.90
2018-04-18T18:56:01.808Z,54.20
2018-04-18T18:58:29.307Z,55.40
2018-04-18T19:00:56.767Z,54.80
2018-04-18T19:03:24.256Z,55.10
2018-04-18T19:05:51.726Z,57.20
2018-04-18T19:08:19.274Z,57.80
2018-04-18T19:10:46.957Z,58.40
2018-04-18T19:13:15.401Z,59.40
2018-04-18T19:15:43.235Z,59.40
2018-04-18T19:18:10.936Z,57.20
2018-04-18T19:20:38.460Z,58.60
2018-04-18T19:23:05.903Z,60.20
2018-04-18T19:25:34.113Z,59.80
2018-04-18T19:28:01.598Z,60.60
2018-04-18T19:30:29.070Z,56.90
2018-04-18T19:32:56.549Z,57.40
2018-04-18T19:35:25.049Z,54.60
2018-04-18T19:37:52.592Z,54.60
2018-04-18T19:40:20.076Z,55.20
2018-04-18T19:42:47.541Z,55.10
2018-04-18T19:45:15.009Z,55.20
2018-04-18T19:47:42.495Z,55.30
2018-04-18T19:50:09.904Z,57.10
2018-04-18T19:52:37.356Z,57.40
2018-04-18T19:55:04.818Z,58.30
2018-04-18T19:57:32.277Z,59.00
2018-04-18T19:59:59.751Z,59.10
2018-04-18T20:02:27.359Z,60.40
2018-04-18T20:04:54.814Z,62.20
2018-04-18T20:07:23.070Z,63.60
2018-04-18T20:09:50.506Z,63.50
2018-04-18T20:12:18.218Z,64.90
2018-04-18T20:14:45.885Z,64.50
2018-04-18T20:17:13.547Z,66.40
2018-04-18T20:19:41.021Z,66.00
2018-04-18T20:22:08.668Z,65.90
2018-04-18T20:24:36.326Z,67.80
2018-04-18T20:27:03.992Z,68.10
2018-04-18T20:29:31.730Z,68.90
2018-04-18T20:31:59.954Z,67.60
2018-04-18T20:34:27.428Z,67.40
2018-04-18T20:36:54.905Z,64.60
2018-04-18T20:39:22.349Z,62.60
2018-04-18T20:41:55.375Z,62.90
2018-04-18T20:44:22.850Z,62.20
2018-04-18T20:46:50.337Z,62.30
2018-04-18T20:49:17.791Z,62.60
2018-04-18T20:51:45.277Z,62.80
2018-04-18T20:54:14.468Z,64.80
2018-04-18T20:56:42.029Z,64.80
2018-04-18T20:59:09.468Z,64.80
2018-04-18T21:01:36.946Z,64.90
2018-04-18T21:04:04.501Z,65.20
2018-04-18T21:06:32.059Z,66.00
2018-04-18T21:08:59.607Z,66.60
2018-04-18T21:11:27.154Z,67.20
2018-04-18T21:13:54.619Z,68.10
2018-04-18T21:16:22.202Z,68.00
2018-04-18T21:18:49.736Z,68.30
2018-04-18T21:21:17.193Z,68.30
2018-04-18T21:23:44.655Z,68.20
2018-04-18T21:26:12.227Z,68.80
2018-04-18T21:28:40.246Z,68.50
2018-04-18T21:31:07.804Z,69.10
2018-04-18T21:33:35.295Z,69.40
2018-04-18T21:36:02.769Z,69.70
2018-04-18T21:38:30.275Z,69.70
2018-04-18T21:40:58.462Z,70.20
2018-04-18T21:43:26.008Z,70.10
2018-04-18T21:45:53.452Z,70.70
2018-04-18T21:48:20.975Z,71.20
2018-04-18T21:50:48.432Z,71.50
2018-04-18T21:53:16.661Z,72.00
2018-04-18T21:55:44.123Z,72.00
2018-04-18T21:58:11.604Z,72.00
2018-04-18T22:00:39.047Z,72.40
2018-04-18T22:03:06.515Z,73.70
2018-04-18T22:05:33.983Z,74.70
2018-04-18T22:08:01.461Z,75.10
2018-04-18T22:10:29.715Z,76.30
2018-04-18T22:12:58.695Z,76.30
2018-04-18T22:15:26.725Z,76.20
2018-04-18T22:17:54.179Z,76.20
2018-04-18T22:20:21.658Z,75.50
2018-04-18T22:22:49.159Z,75.70
2018-04-18T22:25:17.375Z,77.90
2018-04-18T22:27:44.878Z,77.30
2018-04-18T22:30:12.348Z,77.30
2018-04-18T22:32:39.982Z,77.50
2018-04-18T22:35:07.467Z,77.80
2018-04-18T22:37:34.990Z,78.10
2018-04-18T22:40:02.446Z,79.30
2018-04-18T22:42:29.912Z,78.30
2018-04-18T22:44:57.367Z,78.20
2018-04-18T22:47:24.852Z,78.60
2018-04-18T22:49:52.297Z,79.60
2018-04-18T22:52:19.785Z,80.00
2018-04-18T22:54:47.991Z,80.90
2018-04-18T22:57:15.433Z,80.80
2018-04-18T22:59:42.911Z,81.10
2018-04-18T23:02:10.390Z,81.50
2018-04-18T23:04:37.853Z,82.10
2018-04-18T23:07:05.424Z,82.00
2018-04-18T23:09:32.864Z,82.30
2018-04-18T23:12:00.339Z,82.60
2018-04-18T23:14:27.895Z,82.60
2018-04-18T23:16:55.368Z,81.30
2018-04-18T23:19:23.615Z,81.50
2018-04-18T23:21:51.089Z,81.30
2018-04-18T23:24:18.537Z,81.90
2018-04-18T23:26:46.022Z,82.30
2018-04-18T23:29:14.244Z,83.50
2018-04-18T23:31:41.717Z,83.50
2018-04-18T23:34:09.269Z,83.80
2018-04-18T23:36:36.744Z,84.30
2018-04-18T23:39:04.243Z,84.40
2018-04-18T23:41:32.026Z,85.00
2018-04-18T23:43:59.488Z,85.20
2018-04-18T23:46:26.975Z,86.00
2018-04-18T23:48:54.488Z,87.30
2018-04-18T23:51:22.684Z,89.20
2018-04-18T23:53:50.131Z,89.10
2018-04-18T23:56:17.609Z,89.40
2018-04-18T23:58:45.091Z,89.60
